sensor_id;sensor_type;location;lat;lon;timestamp;temperature;humidity
23233;DHT22;11785;49.500;8.288;2023-04-16T00:00:05;9.30;99.90
23233;DHT22;11785;49.500;8.288;2023-04-16T00:02:31;9.30;99.90
23233;DHT22;11785;49.500;8.288;2023-04-16T00:04:56;9.30;99.90
23233;DHT22;11785;49.500;8.288;2023-04-16T00:07:22;9.20;99.90
23233;DHT22;11785;49.500;8.288;2023-04-16T00:09:48;9.20;99.90
23233;DHT22;11785;49.500;8.288;2023-04-16T00:12:13;9.20;99.90
23233;DHT22;11785;49.500;8.288;2023-04-16T00:14:39;9.20;99.90
23233;DHT22;11785;49.500;8.288;2023-04-16T00:17:04;9.20;99.90
23233;DHT22;11785;49.500;8.288;2023-04-16T00:19:30;9.20;99.90
23233;DHT22;11785;49.500;8.288;2023-04-16T00:21:55;9.20;99.90
23233;DHT22;11785;49.500;8.288;2023-04-16T00:24:21;9.20;99.90
23233;DHT22;11785;49.500;8.288;2023-04-16T00:26:47;9.20;99.90
23233;DHT22;11785;49.500;8.288;2023-04-16T00:29:12;9.20;99.90
23233;DHT22;11785;49.500;8.288;2023-04-16T00:31:38;9.20;99.90
23233;DHT22;11785;49.500;8.288;2023-04-16T00:34:03;9.20;99.90
23233;DHT22;11785;49.500;8.288;2023-04-16T00:36:29;9.20;99.90
23233;DHT22;11785;49.500;8.288;2023-04-16T00:38:55;9.20;99.90
23233;DHT22;11785;49.500;8.288;2023-04-16T00:41:21;9.20;99.90
23233;DHT22;11785;49.500;8.288;2023-04-16T00:43:48;9.20;99.90
23233;DHT22;11785;49.500;8.288;2023-04-16T00:46:17;9.20;99.90
23233;DHT22;11785;49.500;8.288;2023-04-16T00:48:44;9.20;99.90
23233;DHT22;11785;49.500;8.288;2023-04-16T00:51:10;9.10;99.90
23233;DHT22;11785;49.500;8.288;2023-04-16T00:53:36;9.20;99.90
23233;DHT22;11785;49.500;8.288;2023-04-16T00:56:04;9.10;99.90
23233;DHT22;11785;49.500;8.288;2023-04-16T00:58:30;9.10;99.90
23233;DHT22;11785;49.500;8.288;2023-04-16T01:00:56;9.10;99.90
23233;DHT22;11785;49.500;8.288;2023-04-16T01:03:22;9.00;99.90
23233;DHT22;11785;49.500;8.288;2023-04-16T01:05:48;9.00;99.90
23233;DHT22;11785;49.500;8.288;2023-04-16T01:08:19;9.10;99.90
23233;DHT22;11785;49.500;8.288;2023-04-16T01:10:45;9.10;99.90
23233;DHT22;11785;49.500;8.288;2023-04-16T01:13:11;9.10;99.90
23233;DHT22;11785;49.500;8.288;2023-04-16T01:15:37;9.10;99.90
23233;DHT22;11785;49.500;8.288;2023-04-16T01:18:12;9.10;99.90
23233;DHT22;11785;49.500;8.288;2023-04-16T01:20:38;9.10;99.90
23233;DHT22;11785;49.500;8.288;2023-04-16T01:23:03;9.10;99.90
23233;DHT22;11785;49.500;8.288;2023-04-16T01:25:29;9.20;99.90
23233;DHT22;11785;49.500;8.288;2023-04-16T01:27:54;9.20;99.90
23233;DHT22;11785;49.500;8.288;2023-04-16T01:30:21;9.20;99.90
23233;DHT22;11785;49.500;8.288;2023-04-16T01:32:47;9.20;99.90
23233;DHT22;11785;49.500;8.288;2023-04-16T01:35:12;9.20;99.90
23233;DHT22;11785;49.500;8.288;2023-04-16T01:37:38;9.20;99.90
23233;DHT22;11785;49.500;8.288;2023-04-16T01:40:04;9.20;99.90
23233;DHT22;11785;49.500;8.288;2023-04-16T01:42:30;9.20;99.90
23233;DHT22;11785;49.500;8.288;2023-04-16T01:44:56;9.20;99.90
23233;DHT22;11785;49.500;8.288;2023-04-16T01:47:21;9.20;99.90
23233;DHT22;11785;49.500;8.288;2023-04-16T01:49:47;9.20;99.90
23233;DHT22;11785;49.500;8.288;2023-04-16T01:52:13;9.20;99.90
23233;DHT22;11785;49.500;8.288;2023-04-16T01:54:38;9.20;99.90
23233;DHT22;11785;49.500;8.288;2023-04-16T01:57:04;9.20;99.90
23233;DHT22;11785;49.500;8.288;2023-04-16T01:59:30;9.20;99.90
23233;DHT22;11785;49.500;8.288;2023-04-16T02:02:00;9.20;99.90
23233;DHT22;11785;49.500;8.288;2023-04-16T02:04:27;9.10;99.90
23233;DHT22;11785;49.500;8.288;2023-04-16T02:06:53;9.20;99.90
23233;DHT22;11785;49.500;8.288;2023-04-16T02:09:19;9.10;99.90
23233;DHT22;11785;49.500;8.288;2023-04-16T02:11:44;9.10;99.90
23233;DHT22;11785;49.500;8.288;2023-04-16T02:14:10;9.10;99.90
23233;DHT22;11785;49.500;8.288;2023-04-16T02:16:36;9.10;99.90
23233;DHT22;11785;49.500;8.288;2023-04-16T02:19:01;9.10;99.90
23233;DHT22;11785;49.500;8.288;2023-04-16T02:21:28;9.10;99.90
23233;DHT22;11785;49.500;8.288;2023-04-16T02:23:54;9.10;99.90
23233;DHT22;11785;49.500;8.288;2023-04-16T02:26:20;9.10;99.90
23233;DHT22;11785;49.500;8.288;2023-04-16T02:28:45;9.10;99.90
23233;DHT22;11785;49.500;8.288;2023-04-16T02:31:11;9.10;99.90
23233;DHT22;11785;49.500;8.288;2023-04-16T02:33:37;9.00;99.90
23233;DHT22;11785;49.500;8.288;2023-04-16T02:36:02;9.00;99.90
23233;DHT22;11785;49.500;8.288;2023-04-16T02:38:28;9.00;99.90
23233;DHT22;11785;49.500;8.288;2023-04-16T02:40:53;9.10;99.90
23233;DHT22;11785;49.500;8.288;2023-04-16T02:43:19;9.00;99.90
23233;DHT22;11785;49.500;8.288;2023-04-16T02:45:44;9.00;99.90
23233;DHT22;11785;49.500;8.288;2023-04-16T02:48:10;9.00;99.90
23233;DHT22;11785;49.500;8.288;2023-04-16T02:50:36;9.00;99.90
23233;DHT22;11785;49.500;8.288;2023-04-16T02:53:01;9.00;99.90
23233;DHT22;11785;49.500;8.288;2023-04-16T02:55:27;9.00;99.90
23233;DHT22;11785;49.500;8.288;2023-04-16T02:57:53;9.00;99.90
23233;DHT22;11785;49.500;8.288;2023-04-16T03:00:19;9.00;99.90
23233;DHT22;11785;49.500;8.288;2023-04-16T03:02:45;9.00;99.90
23233;DHT22;11785;49.500;8.288;2023-04-16T03:05:10;9.00;99.90
23233;DHT22;11785;49.500;8.288;2023-04-16T03:07:36;9.00;99.90
23233;DHT22;11785;49.500;8.288;2023-04-16T03:10:04;8.90;99.90
23233;DHT22;11785;49.500;8.288;2023-04-16T03:12:30;9.00;99.90
23233;DHT22;11785;49.500;8.288;2023-04-16T03:14:59;9.00;99.90
23233;DHT22;11785;49.500;8.288;2023-04-16T03:17:25;9.00;99.90
23233;DHT22;11785;49.500;8.288;2023-04-16T03:19:50;9.00;99.90
23233;DHT22;11785;49.500;8.288;2023-04-16T03:22:16;9.00;99.90
23233;DHT22;11785;49.500;8.288;2023-04-16T03:24:42;8.90;99.90
23233;DHT22;11785;49.500;8.288;2023-04-16T03:27:07;9.00;99.90
23233;DHT22;11785;49.500;8.288;2023-04-16T03:29:35;8.90;99.90
23233;DHT22;11785;49.500;8.288;2023-04-16T03:32:02;9.00;99.90
23233;DHT22;11785;49.500;8.288;2023-04-16T03:34:27;8.90;99.90
23233;DHT22;11785;49.500;8.288;2023-04-16T03:36:53;8.90;99.90
23233;DHT22;11785;49.500;8.288;2023-04-16T03:39:19;8.90;99.90
23233;DHT22;11785;49.500;8.288;2023-04-16T03:41:44;9.00;99.90
23233;DHT22;11785;49.500;8.288;2023-04-16T03:44:10;9.00;99.90
23233;DHT22;11785;49.500;8.288;2023-04-16T03:46:36;8.90;99.90
23233;DHT22;11785;49.500;8.288;2023-04-16T03:49:01;8.90;99.90
23233;DHT22;11785;49.500;8.288;2023-04-16T03:51:27;8.90;99.90
23233;DHT22;11785;49.500;8.288;2023-04-16T03:53:52;8.90;99.90
23233;DHT22;11785;49.500;8.288;2023-04-16T03:56:18;8.90;99.90
23233;DHT22;11785;49.500;8.288;2023-04-16T03:58:43;8.90;99.90
23233;DHT22;11785;49.500;8.288;2023-04-16T04:01:09;8.90;99.90
23233;DHT22;11785;49.500;8.288;2023-04-16T04:03:35;8.90;99.90
23233;DHT22;11785;49.500;8.288;2023-04-16T04:06:00;8.90;99.90
23233;DHT22;11785;49.500;8.288;2023-04-16T04:08:30;8.90;99.90
23233;DHT22;11785;49.500;8.288;2023-04-16T04:10:56;8.90;99.90
23233;DHT22;11785;49.500;8.288;2023-04-16T04:13:21;8.90;99.90
23233;DHT22;11785;49.500;8.288;2023-04-16T04:15:47;8.90;99.90
23233;DHT22;11785;49.500;8.288;2023-04-16T04:18:13;8.90;99.90
23233;DHT22;11785;49.500;8.288;2023-04-16T04:20:39;8.90;99.90
23233;DHT22;11785;49.500;8.288;2023-04-16T04:23:05;8.90;99.90
23233;DHT22;11785;49.500;8.288;2023-04-16T04:25:31;8.90;99.90
23233;DHT22;11785;49.500;8.288;2023-04-16T04:27:56;8.90;99.90
23233;DHT22;11785;49.500;8.288;2023-04-16T04:30:22;8.90;99.90
23233;DHT22;11785;49.500;8.288;2023-04-16T04:32:47;9.00;99.90
23233;DHT22;11785;49.500;8.288;2023-04-16T04:35:13;9.00;99.90
23233;DHT22;11785;49.500;8.288;2023-04-16T04:37:38;9.00;99.90
23233;DHT22;11785;49.500;8.288;2023-04-16T04:40:04;9.00;99.90
23233;DHT22;11785;49.500;8.288;2023-04-16T04:42:30;9.00;99.90
23233;DHT22;11785;49.500;8.288;2023-04-16T04:44:56;9.00;99.90
23233;DHT22;11785;49.500;8.288;2023-04-16T04:47:21;9.00;99.90
23233;DHT22;11785;49.500;8.288;2023-04-16T04:49:47;9.00;99.90
23233;DHT22;11785;49.500;8.288;2023-04-16T04:52:13;9.00;99.90
23233;DHT22;11785;49.500;8.288;2023-04-16T04:54:38;9.00;99.90
23233;DHT22;11785;49.500;8.288;2023-04-16T04:57:06;9.00;99.90
23233;DHT22;11785;49.500;8.288;2023-04-16T04:59:32;9.10;99.90
23233;DHT22;11785;49.500;8.288;2023-04-16T05:01:58;9.10;99.90
23233;DHT22;11785;49.500;8.288;2023-04-16T05:04:24;9.10;99.90
23233;DHT22;11785;49.500;8.288;2023-04-16T05:06:50;9.10;99.90
23233;DHT22;11785;49.500;8.288;2023-04-16T05:09:15;9.10;99.90
23233;DHT22;11785;49.500;8.288;2023-04-16T05:11:41;9.10;99.90
23233;DHT22;11785;49.500;8.288;2023-04-16T05:14:07;9.10;99.90
23233;DHT22;11785;49.500;8.288;2023-04-16T05:16:36;9.10;99.90
23233;DHT22;11785;49.500;8.288;2023-04-16T05:19:02;9.10;99.90
23233;DHT22;11785;49.500;8.288;2023-04-16T05:21:27;9.20;99.90
23233;DHT22;11785;49.500;8.288;2023-04-16T05:23:53;9.20;99.90
23233;DHT22;11785;49.500;8.288;2023-04-16T05:26:19;9.20;99.90
23233;DHT22;11785;49.500;8.288;2023-04-16T05:28:45;9.20;99.90
23233;DHT22;11785;49.500;8.288;2023-04-16T05:31:10;9.20;99.90
23233;DHT22;11785;49.500;8.288;2023-04-16T05:33:36;9.20;99.90
23233;DHT22;11785;49.500;8.288;2023-04-16T05:36:01;9.30;99.90
23233;DHT22;11785;49.500;8.288;2023-04-16T05:38:27;9.30;99.90
23233;DHT22;11785;49.500;8.288;2023-04-16T05:40:52;9.30;99.90
23233;DHT22;11785;49.500;8.288;2023-04-16T05:43:18;9.40;99.90
23233;DHT22;11785;49.500;8.288;2023-04-16T05:45:43;9.40;99.90
23233;DHT22;11785;49.500;8.288;2023-04-16T05:48:09;9.50;99.90
23233;DHT22;11785;49.500;8.288;2023-04-16T05:50:35;9.50;99.90
23233;DHT22;11785;49.500;8.288;2023-04-16T05:53:04;9.50;99.90
23233;DHT22;11785;49.500;8.288;2023-04-16T05:55:30;9.50;99.90
23233;DHT22;11785;49.500;8.288;2023-04-16T05:57:55;9.50;99.90
23233;DHT22;11785;49.500;8.288;2023-04-16T06:00:21;9.50;99.90
23233;DHT22;11785;49.500;8.288;2023-04-16T06:02:46;9.60;99.90
23233;DHT22;11785;49.500;8.288;2023-04-16T06:05:12;9.60;99.90
23233;DHT22;11785;49.500;8.288;2023-04-16T06:07:37;9.60;99.90
23233;DHT22;11785;49.500;8.288;2023-04-16T06:10:03;9.60;99.90
23233;DHT22;11785;49.500;8.288;2023-04-16T06:12:29;9.60;99.90
23233;DHT22;11785;49.500;8.288;2023-04-16T06:14:55;9.60;99.90
23233;DHT22;11785;49.500;8.288;2023-04-16T06:17:21;9.60;99.90
23233;DHT22;11785;49.500;8.288;2023-04-16T06:19:47;9.70;99.90
23233;DHT22;11785;49.500;8.288;2023-04-16T06:22:12;9.70;99.90
23233;DHT22;11785;49.500;8.288;2023-04-16T06:24:38;9.80;99.70
23233;DHT22;11785;49.500;8.288;2023-04-16T06:27:03;9.80;99.60
23233;DHT22;11785;49.500;8.288;2023-04-16T06:29:29;9.80;99.50
23233;DHT22;11785;49.500;8.288;2023-04-16T06:31:55;9.80;99.60
23233;DHT22;11785;49.500;8.288;2023-04-16T06:34:20;9.80;99.90
23233;DHT22;11785;49.500;8.288;2023-04-16T06:36:46;9.80;99.90
23233;DHT22;11785;49.500;8.288;2023-04-16T06:39:11;9.80;99.60
23233;DHT22;11785;49.500;8.288;2023-04-16T06:41:37;9.80;99.00
23233;DHT22;11785;49.500;8.288;2023-04-16T06:44:02;9.80;99.40
23233;DHT22;11785;49.500;8.288;2023-04-16T06:46:28;9.80;99.60
23233;DHT22;11785;49.500;8.288;2023-04-16T06:48:55;9.80;99.60
23233;DHT22;11785;49.500;8.288;2023-04-16T06:51:20;9.70;99.90
23233;DHT22;11785;49.500;8.288;2023-04-16T06:53:46;9.70;99.90
23233;DHT22;11785;49.500;8.288;2023-04-16T06:56:12;9.70;99.90
23233;DHT22;11785;49.500;8.288;2023-04-16T06:58:38;9.60;99.90
23233;DHT22;11785;49.500;8.288;2023-04-16T07:01:04;9.70;99.90
23233;DHT22;11785;49.500;8.288;2023-04-16T07:03:30;9.70;99.90
23233;DHT22;11785;49.500;8.288;2023-04-16T07:05:55;9.70;99.90
23233;DHT22;11785;49.500;8.288;2023-04-16T07:08:21;9.70;99.90
23233;DHT22;11785;49.500;8.288;2023-04-16T07:10:47;9.80;99.90
23233;DHT22;11785;49.500;8.288;2023-04-16T07:13:12;9.80;99.70
23233;DHT22;11785;49.500;8.288;2023-04-16T07:15:38;10.00;99.40
23233;DHT22;11785;49.500;8.288;2023-04-16T07:18:03;10.10;98.70
23233;DHT22;11785;49.500;8.288;2023-04-16T07:20:29;10.20;98.30
23233;DHT22;11785;49.500;8.288;2023-04-16T07:22:55;10.20;98.10
23233;DHT22;11785;49.500;8.288;2023-04-16T07:25:21;10.30;97.60
23233;DHT22;11785;49.500;8.288;2023-04-16T07:27:46;10.40;97.00
23233;DHT22;11785;49.500;8.288;2023-04-16T07:30:12;10.30;97.20
23233;DHT22;11785;49.500;8.288;2023-04-16T07:32:37;10.40;96.70
23233;DHT22;11785;49.500;8.288;2023-04-16T07:35:03;10.50;96.20
23233;DHT22;11785;49.500;8.288;2023-04-16T07:37:28;10.50;95.90
23233;DHT22;11785;49.500;8.288;2023-04-16T07:39:55;10.50;95.70
23233;DHT22;11785;49.500;8.288;2023-04-16T07:42:22;10.30;96.30
23233;DHT22;11785;49.500;8.288;2023-04-16T07:44:47;10.30;96.50
23233;DHT22;11785;49.500;8.288;2023-04-16T07:47:13;10.20;97.10
23233;DHT22;11785;49.500;8.288;2023-04-16T07:49:38;10.20;97.20
23233;DHT22;11785;49.500;8.288;2023-04-16T07:52:04;10.20;97.20
23233;DHT22;11785;49.500;8.288;2023-04-16T07:54:30;10.20;97.20
23233;DHT22;11785;49.500;8.288;2023-04-16T07:56:56;10.30;96.40
23233;DHT22;11785;49.500;8.288;2023-04-16T07:59:21;10.30;96.70
23233;DHT22;11785;49.500;8.288;2023-04-16T08:01:47;10.40;96.50
23233;DHT22;11785;49.500;8.288;2023-04-16T08:04:13;10.40;96.20
23233;DHT22;11785;49.500;8.288;2023-04-16T08:06:38;10.40;96.40
23233;DHT22;11785;49.500;8.288;2023-04-16T08:09:04;10.40;96.40
23233;DHT22;11785;49.500;8.288;2023-04-16T08:11:29;10.30;96.90
23233;DHT22;11785;49.500;8.288;2023-04-16T08:13:55;10.30;96.80
23233;DHT22;11785;49.500;8.288;2023-04-16T08:16:21;10.20;97.10
23233;DHT22;11785;49.500;8.288;2023-04-16T08:18:46;10.20;97.40
23233;DHT22;11785;49.500;8.288;2023-04-16T08:21:12;10.30;97.00
23233;DHT22;11785;49.500;8.288;2023-04-16T08:23:37;10.30;96.80
23233;DHT22;11785;49.500;8.288;2023-04-16T08:26:03;10.50;96.00
23233;DHT22;11785;49.500;8.288;2023-04-16T08:28:28;10.60;95.30
23233;DHT22;11785;49.500;8.288;2023-04-16T08:30:54;10.80;94.70
23233;DHT22;11785;49.500;8.288;2023-04-16T08:33:20;10.90;93.90
23233;DHT22;11785;49.500;8.288;2023-04-16T08:35:46;11.10;93.10
23233;DHT22;11785;49.500;8.288;2023-04-16T08:38:11;11.20;92.20
23233;DHT22;11785;49.500;8.288;2023-04-16T08:40:37;11.30;92.10
23233;DHT22;11785;49.500;8.288;2023-04-16T08:43:08;11.40;91.20
23233;DHT22;11785;49.500;8.288;2023-04-16T08:45:35;11.50;90.70
23233;DHT22;11785;49.500;8.288;2023-04-16T08:48:06;11.30;91.20
23233;DHT22;11785;49.500;8.288;2023-04-16T08:50:33;11.20;91.50
23233;DHT22;11785;49.500;8.288;2023-04-16T08:53:03;11.20;91.60
23233;DHT22;11785;49.500;8.288;2023-04-16T08:55:35;11.20;91.90
23233;DHT22;11785;49.500;8.288;2023-04-16T08:58:08;11.00;93.00
23233;DHT22;11785;49.500;8.288;2023-04-16T09:00:36;11.00;94.00
23233;DHT22;11785;49.500;8.288;2023-04-16T09:03:03;10.80;95.10
23233;DHT22;11785;49.500;8.288;2023-04-16T09:05:28;10.50;96.90
23233;DHT22;11785;49.500;8.288;2023-04-16T09:07:55;10.30;99.70
23233;DHT22;11785;49.500;8.288;2023-04-16T09:10:21;10.10;99.90
23233;DHT22;11785;49.500;8.288;2023-04-16T09:12:46;10.10;99.90
23233;DHT22;11785;49.500;8.288;2023-04-16T09:15:12;10.00;99.90
23233;DHT22;11785;49.500;8.288;2023-04-16T09:17:38;10.00;99.90
23233;DHT22;11785;49.500;8.288;2023-04-16T09:20:05;9.90;99.90
23233;DHT22;11785;49.500;8.288;2023-04-16T09:22:36;9.90;99.90
23233;DHT22;11785;49.500;8.288;2023-04-16T09:25:02;9.90;99.90
23233;DHT22;11785;49.500;8.288;2023-04-16T09:27:29;10.00;99.90
23233;DHT22;11785;49.500;8.288;2023-04-16T09:29:55;9.90;99.90
23233;DHT22;11785;49.500;8.288;2023-04-16T09:32:24;9.90;99.90
23233;DHT22;11785;49.500;8.288;2023-04-16T09:34:59;9.80;99.90
23233;DHT22;11785;49.500;8.288;2023-04-16T09:37:29;9.80;99.90
23233;DHT22;11785;49.500;8.288;2023-04-16T09:40:02;9.80;99.90
23233;DHT22;11785;49.500;8.288;2023-04-16T09:42:32;9.80;99.90
23233;DHT22;11785;49.500;8.288;2023-04-16T09:44:58;9.90;99.90
23233;DHT22;11785;49.500;8.288;2023-04-16T09:47:25;9.90;99.90
23233;DHT22;11785;49.500;8.288;2023-04-16T09:49:51;9.90;99.90
23233;DHT22;11785;49.500;8.288;2023-04-16T09:52:21;9.80;99.90
23233;DHT22;11785;49.500;8.288;2023-04-16T09:54:49;9.70;99.90
23233;DHT22;11785;49.500;8.288;2023-04-16T09:57:22;9.70;99.90
23233;DHT22;11785;49.500;8.288;2023-04-16T10:00:00;9.70;99.90
23233;DHT22;11785;49.500;8.288;2023-04-16T10:02:26;9.70;99.90
23233;DHT22;11785;49.500;8.288;2023-04-16T10:04:53;9.60;99.90
23233;DHT22;11785;49.500;8.288;2023-04-16T10:07:19;9.60;99.90
23233;DHT22;11785;49.500;8.288;2023-04-16T10:09:48;9.60;99.90
23233;DHT22;11785;49.500;8.288;2023-04-16T10:12:15;9.60;99.90
23233;DHT22;11785;49.500;8.288;2023-04-16T10:14:41;9.60;99.90
23233;DHT22;11785;49.500;8.288;2023-04-16T10:17:07;9.50;99.90
23233;DHT22;11785;49.500;8.288;2023-04-16T10:19:34;9.50;99.90
23233;DHT22;11785;49.500;8.288;2023-04-16T10:22:00;9.60;99.90
23233;DHT22;11785;49.500;8.288;2023-04-16T10:24:31;9.60;99.90
23233;DHT22;11785;49.500;8.288;2023-04-16T10:26:58;9.60;99.90
23233;DHT22;11785;49.500;8.288;2023-04-16T10:29:26;9.60;99.90
23233;DHT22;11785;49.500;8.288;2023-04-16T10:31:52;9.60;99.90
23233;DHT22;11785;49.500;8.288;2023-04-16T10:34:20;9.60;99.90
23233;DHT22;11785;49.500;8.288;2023-04-16T10:36:51;9.70;99.90
23233;DHT22;11785;49.500;8.288;2023-04-16T10:39:24;9.70;99.90
23233;DHT22;11785;49.500;8.288;2023-04-16T10:42:06;9.80;99.90
23233;DHT22;11785;49.500;8.288;2023-04-16T10:44:32;9.80;99.90
23233;DHT22;11785;49.500;8.288;2023-04-16T10:46:58;9.90;99.90
23233;DHT22;11785;49.500;8.288;2023-04-16T10:49:25;9.90;99.90
23233;DHT22;11785;49.500;8.288;2023-04-16T10:54:23;10.00;99.90
23233;DHT22;11785;49.500;8.288;2023-04-16T10:56:52;9.90;99.90
23233;DHT22;11785;49.500;8.288;2023-04-16T10:59:20;10.00;99.90
23233;DHT22;11785;49.500;8.288;2023-04-16T11:01:48;10.00;99.90
23233;DHT22;11785;49.500;8.288;2023-04-16T11:12:21;10.20;99.90
23233;DHT22;11785;49.500;8.288;2023-04-16T11:15:01;10.20;99.90
23233;DHT22;11785;49.500;8.288;2023-04-16T11:17:39;10.20;99.90
23233;DHT22;11785;49.500;8.288;2023-04-16T11:20:18;10.20;99.90
23233;DHT22;11785;49.500;8.288;2023-04-16T11:22:45;10.30;99.90
23233;DHT22;11785;49.500;8.288;2023-04-16T11:25:11;10.30;99.90
23233;DHT22;11785;49.500;8.288;2023-04-16T11:27:37;10.30;99.90
23233;DHT22;11785;49.500;8.288;2023-04-16T11:30:05;10.40;99.90
23233;DHT22;11785;49.500;8.288;2023-04-16T11:32:35;10.50;99.90
23233;DHT22;11785;49.500;8.288;2023-04-16T11:35:03;10.50;99.90
23233;DHT22;11785;49.500;8.288;2023-04-16T11:37:34;10.50;99.90
23233;DHT22;11785;49.500;8.288;2023-04-16T11:40:02;10.60;99.90
23233;DHT22;11785;49.500;8.288;2023-04-16T11:42:38;10.50;99.90
23233;DHT22;11785;49.500;8.288;2023-04-16T11:45:06;10.60;99.90
23233;DHT22;11785;49.500;8.288;2023-04-16T11:47:45;10.70;99.90
23233;DHT22;11785;49.500;8.288;2023-04-16T11:50:24;10.70;99.90
23233;DHT22;11785;49.500;8.288;2023-04-16T11:52:52;10.70;99.90
23233;DHT22;11785;49.500;8.288;2023-04-16T11:55:18;10.80;99.90
23233;DHT22;11785;49.500;8.288;2023-04-16T11:57:44;10.80;99.90
23233;DHT22;11785;49.500;8.288;2023-04-16T12:00:11;10.80;99.90
23233;DHT22;11785;49.500;8.288;2023-04-16T12:02:40;10.90;99.90
23233;DHT22;11785;49.500;8.288;2023-04-16T12:05:43;11.00;99.70
23233;DHT22;11785;49.500;8.288;2023-04-16T12:08:10;11.10;99.10
23233;DHT22;11785;49.500;8.288;2023-04-16T12:10:51;11.20;98.70
23233;DHT22;11785;49.500;8.288;2023-04-16T12:13:17;11.20;98.20
23233;DHT22;11785;49.500;8.288;2023-04-16T12:15:47;11.20;98.60
23233;DHT22;11785;49.500;8.288;2023-04-16T12:18:14;11.30;98.50
23233;DHT22;11785;49.500;8.288;2023-04-16T12:20:41;11.30;97.40
23233;DHT22;11785;49.500;8.288;2023-04-16T12:23:08;11.40;97.30
23233;DHT22;11785;49.500;8.288;2023-04-16T12:25:33;11.40;97.40
23233;DHT22;11785;49.500;8.288;2023-04-16T12:27:59;11.50;96.30
23233;DHT22;11785;49.500;8.288;2023-04-16T12:30:26;11.60;95.90
23233;DHT22;11785;49.500;8.288;2023-04-16T12:33:16;11.70;95.70
23233;DHT22;11785;49.500;8.288;2023-04-16T12:35:42;11.90;95.30
23233;DHT22;11785;49.500;8.288;2023-04-16T12:38:09;11.90;94.20
23233;DHT22;11785;49.500;8.288;2023-04-16T12:40:35;11.90;94.00
23233;DHT22;11785;49.500;8.288;2023-04-16T12:43:01;12.00;93.30
23233;DHT22;11785;49.500;8.288;2023-04-16T12:45:26;12.10;92.70
23233;DHT22;11785;49.500;8.288;2023-04-16T12:47:52;12.30;92.30
23233;DHT22;11785;49.500;8.288;2023-04-16T12:50:18;12.50;91.40
23233;DHT22;11785;49.500;8.288;2023-04-16T12:52:44;12.60;90.60
23233;DHT22;11785;49.500;8.288;2023-04-16T12:55:09;12.30;90.70
23233;DHT22;11785;49.500;8.288;2023-04-16T12:57:35;12.20;91.30
23233;DHT22;11785;49.500;8.288;2023-04-16T13:00:01;12.10;91.70
23233;DHT22;11785;49.500;8.288;2023-04-16T13:02:26;12.10;91.10
23233;DHT22;11785;49.500;8.288;2023-04-16T13:04:53;12.00;91.90
23233;DHT22;11785;49.500;8.288;2023-04-16T13:07:19;12.00;91.70
23233;DHT22;11785;49.500;8.288;2023-04-16T13:09:46;12.20;91.00
23233;DHT22;11785;49.500;8.288;2023-04-16T13:12:12;12.20;90.40
23233;DHT22;11785;49.500;8.288;2023-04-16T13:14:37;12.20;89.90
23233;DHT22;11785;49.500;8.288;2023-04-16T13:17:03;12.20;89.60
23233;DHT22;11785;49.500;8.288;2023-04-16T13:19:29;12.30;88.40
23233;DHT22;11785;49.500;8.288;2023-04-16T13:21:55;12.40;88.30
23233;DHT22;11785;49.500;8.288;2023-04-16T13:24:20;12.40;88.90
23233;DHT22;11785;49.500;8.288;2023-04-16T13:26:47;12.30;88.80
23233;DHT22;11785;49.500;8.288;2023-04-16T13:29:12;12.10;90.00
23233;DHT22;11785;49.500;8.288;2023-04-16T13:31:38;12.00;90.40
23233;DHT22;11785;49.500;8.288;2023-04-16T13:34:04;12.00;90.70
23233;DHT22;11785;49.500;8.288;2023-04-16T13:36:30;12.00;91.10
23233;DHT22;11785;49.500;8.288;2023-04-16T13:38:57;11.90;91.00
23233;DHT22;11785;49.500;8.288;2023-04-16T13:41:23;11.90;91.00
23233;DHT22;11785;49.500;8.288;2023-04-16T13:43:48;11.80;91.50
23233;DHT22;11785;49.500;8.288;2023-04-16T13:46:14;11.70;92.10
23233;DHT22;11785;49.500;8.288;2023-04-16T13:48:39;11.70;92.20
23233;DHT22;11785;49.500;8.288;2023-04-16T13:51:05;11.70;92.30
23233;DHT22;11785;49.500;8.288;2023-04-16T13:53:30;11.60;92.60
23233;DHT22;11785;49.500;8.288;2023-04-16T13:55:56;11.60;92.60
23233;DHT22;11785;49.500;8.288;2023-04-16T13:58:22;11.70;92.50
23233;DHT22;11785;49.500;8.288;2023-04-16T14:00:47;11.70;92.40
23233;DHT22;11785;49.500;8.288;2023-04-16T14:03:13;11.70;92.40
23233;DHT22;11785;49.500;8.288;2023-04-16T14:05:38;11.80;92.00
23233;DHT22;11785;49.500;8.288;2023-04-16T14:08:05;11.80;92.20
23233;DHT22;11785;49.500;8.288;2023-04-16T14:10:31;11.80;92.10
23233;DHT22;11785;49.500;8.288;2023-04-16T14:12:57;11.90;91.80
23233;DHT22;11785;49.500;8.288;2023-04-16T14:15:23;11.90;91.90
23233;DHT22;11785;49.500;8.288;2023-04-16T14:17:51;11.90;91.90
23233;DHT22;11785;49.500;8.288;2023-04-16T14:20:16;11.90;91.80
23233;DHT22;11785;49.500;8.288;2023-04-16T14:22:42;11.80;92.10
23233;DHT22;11785;49.500;8.288;2023-04-16T14:25:08;11.70;92.50
23233;DHT22;11785;49.500;8.288;2023-04-16T14:27:34;11.70;93.10
23233;DHT22;11785;49.500;8.288;2023-04-16T14:30:00;11.70;93.50
23233;DHT22;11785;49.500;8.288;2023-04-16T14:32:26;11.70;94.80
23233;DHT22;11785;49.500;8.288;2023-04-16T14:34:51;11.60;95.60
23233;DHT22;11785;49.500;8.288;2023-04-16T14:37:17;11.50;96.60
23233;DHT22;11785;49.500;8.288;2023-04-16T14:39:43;11.40;97.50
23233;DHT22;11785;49.500;8.288;2023-04-16T14:42:09;11.40;98.20
23233;DHT22;11785;49.500;8.288;2023-04-16T14:44:35;11.40;98.80
23233;DHT22;11785;49.500;8.288;2023-04-16T14:47:01;11.50;98.60
23233;DHT22;11785;49.500;8.288;2023-04-16T14:49:26;11.50;98.40
23233;DHT22;11785;49.500;8.288;2023-04-16T14:51:52;11.50;98.40
23233;DHT22;11785;49.500;8.288;2023-04-16T14:54:18;11.50;98.10
23233;DHT22;11785;49.500;8.288;2023-04-16T14:56:44;11.60;97.30
23233;DHT22;11785;49.500;8.288;2023-04-16T14:59:10;11.60;97.20
23233;DHT22;11785;49.500;8.288;2023-04-16T15:01:36;11.60;97.20
23233;DHT22;11785;49.500;8.288;2023-04-16T15:04:04;11.70;96.50
23233;DHT22;11785;49.500;8.288;2023-04-16T15:06:30;11.70;96.40
23233;DHT22;11785;49.500;8.288;2023-04-16T15:08:56;11.80;95.50
23233;DHT22;11785;49.500;8.288;2023-04-16T15:11:22;11.90;94.40
23233;DHT22;11785;49.500;8.288;2023-04-16T15:13:47;12.00;93.20
23233;DHT22;11785;49.500;8.288;2023-04-16T15:16:13;12.00;93.00
23233;DHT22;11785;49.500;8.288;2023-04-16T15:18:38;12.10;93.00
23233;DHT22;11785;49.500;8.288;2023-04-16T15:21:04;12.10;92.10
23233;DHT22;11785;49.500;8.288;2023-04-16T15:23:30;12.10;92.00
23233;DHT22;11785;49.500;8.288;2023-04-16T15:25:56;12.10;91.90
23233;DHT22;11785;49.500;8.288;2023-04-16T15:28:21;12.10;91.40
23233;DHT22;11785;49.500;8.288;2023-04-16T15:30:47;12.10;91.20
23233;DHT22;11785;49.500;8.288;2023-04-16T15:33:13;12.10;91.10
23233;DHT22;11785;49.500;8.288;2023-04-16T15:35:38;12.10;91.50
23233;DHT22;11785;49.500;8.288;2023-04-16T15:38:06;12.20;90.80
23233;DHT22;11785;49.500;8.288;2023-04-16T15:40:32;12.20;90.90
23233;DHT22;11785;49.500;8.288;2023-04-16T15:42:58;12.40;90.10
23233;DHT22;11785;49.500;8.288;2023-04-16T15:45:23;12.50;89.40